• Join FlightAware (Why Join?)
  • Login
  • US Flag 
02:05AM EDT


 

Airport Tracker/Info


-or-


 

Live Flight TrackerFlight Track Log ✈ CJT620 ✈ 10-Apr-2013 ✈ CYQM - CYHZ

Flight Track Log - Related Links

Times and Time Zones

All times are in EDT time to prevent confusion due to time zone crossing. See the CJT620 flight status page for this flight to view local times or setup timezone preferences in your user account.

Time Position Orientation Groundspeed Altitude Reporting Facility
EDT Latitude Longitude Course Direction KTS MPH feet Rate Location/Type
03:07AM 46.0667 -64.5500 126° Southeast 220 253 3,900  Level Moncton Center
03:08AM 46.0167 -64.4667 131° Southeast 270 311 7,500 2,940 Climbing Moncton Center
03:09AM 45.9500 -64.4000 145° Southeast 300 345 9,800 2,220 Climbing Moncton Center
03:10AM 45.8833 -64.3000 134° Southeast 320 368 12,000 1,800 Climbing Moncton Center
03:11AM 45.9127 -64.3006 152° Southeast  Level FlightAware Approximate
03:11AM 45.8000 -64.2000 140° Southeast 370 426 13,500  Level Moncton Center
03:12AM 45.7000 -64.1167 150° Southeast 410 472 15,000 780 Climbing Moncton Center
03:13AM 45.6000 -63.9833 137° Southeast 450 518 15,100  Climbing Moncton Center
03:14AM 45.5000 -63.8667 141° Southeast 460 529 15,100 -660 Level Moncton Center
03:15AM 45.4167 -63.7500 135° Southeast 440 506 13,800 -2,220 Descending Moncton Center
03:16AM 45.3333 -63.6667 145° Southeast 350 403 10,700 -3,180 Descending Moncton Center
03:17AM 45.2667 -63.5833 139° Southeast 320 368 7,500 -2,460 Descending Moncton Center
03:18AM 45.2000 -63.5167 145° Southeast 290 334 5,800 -1,800 Descending Moncton Center
03:19AM 45.1500 -63.4500 137° Southeast 260 299 3,900 -1,500 Descending Moncton Center
03:20AM 45.1167 -63.4000 133° Southeast 240 276 2,900 -600 Descending Moncton Center
03:21AM 45.0667 -63.3333 137° Southeast 200 230 2,700 -120 Descending Moncton Center
03:22AM 45.0333 -63.3333 180° South 170 196 2,700  Level Moncton Center
03:23AM 44.9833 -63.3833 215° Southwest 170 196 2,700 -120 Level Moncton Center
03:24AM 44.9500 -63.4000 199° South 160 184 2,500 -600 Descending Moncton Center
03:25AM 44.9167 -63.4500 227° Southwest 150 173 1,600 -840 Descending Moncton Center
03:26AM 44.8833 -63.4833 215° Southwest 140 161 900 -720 Descending Moncton Center